Sanpo Maru No.5 — JL6343 — position and weather

sailwx.info

Track history (hours):
 
Tides and Currents Weather Stations Pressure Air Temp Water Temp Dewpoint Dewpoint Depression Visibility Wind Speed Wind Dir Waves Ship Positions

Sanpo Maru No.5

Last reported at 2014-Jul-23 09:33 UTC. Time now 2014-Jul-23 09:51 UTC.
Position N 35°30' E 140°02'.

Length 71 m; draft 4.5 m.

Type: Ship. MMSI: 431500283.

Date/timePositionNaut miles runAvg speedWind from/ knotsBaromVisibWave heightAir tempDewpointWater temp
2014-Jul-23 09:33N 35°30' E 140°02'0 0.0
2014-Jul-23 08:33N 35°30' E 140°02'0 0.0
2014-Jul-23 07:33N 35°30' E 140°02'0 0.0
2014-Jul-23 06:33N 35°30' E 140°02'0 0.0
2014-Jul-23 05:33N 35°30' E 140°02'0 0.0
2014-Jul-23 04:33N 35°30' E 140°02'0 0.0
2014-Jul-23 03:33N 35°30' E 140°02'0 0.0
2014-Jul-23 02:33N 35°30' E 140°02'0 0.0
2014-Jul-23 01:33N 35°30' E 140°02'0 0.1
2014-Jul-23 00:33N 35°30' E 140°02'2 2.3
2014-Jul-22 23:33N 35°31' E 139°60'0 0.0
2014-Jul-22 22:33N 35°31' E 139°60'1010.3
2014-Jul-22 21:33N 35°26' E 139°49'1010.0
2014-Jul-22 20:33N 35°16' E 139°46'1110.9
2014-Jul-22 19:34N 35°05' E 139°44'1312.4
2014-Jul-22 18:31N 34°57' E 139°32'229 9.0
2014-Jul-21 17:09N 34°13' E 134°58'811.5
2014-Jul-21 16:30N 34°21' E 134°59'1111.1
2014-Jul-21 15:29N 34°32' E 135°02'8 7.6
2014-Jul-21 14:26N 34°35' E 134°53'5 0.1
2014-Jul-19 23:21N 34°37' E 134°58'6 7.3
2014-Jul-19 22:33N 34°35' E 135°05'1010.0
2014-Jul-19 21:33N 34°25' E 135°02'1010.0
2014-Jul-19 20:31N 34°15' E 134°59'1010.8
2014-Jul-19 19:33N 34°05' E 135°01'209 9.1
2014-Jul-18 20:31N 34°49' E 139°09'2110.3
2014-Jul-18 18:28N 35°03' E 139°28'1011.3
2014-Jul-18 17:33N 35°06' E 139°40'1110.9
2014-Jul-18 16:33N 35°16' E 139°45'10 9.8
2014-Jul-18 15:33N 35°26' E 139°46'1111.4
2014-Jul-18 14:33N 35°30' E 139°59'3 2.7
2014-Jul-18 13:33N 35°30' E 140°02'0 0.0
2014-Jul-18 12:33N 35°30' E 140°02'0 0.0
2014-Jul-18 11:33N 35°30' E 140°02'0 0.0
2014-Jul-18 10:33N 35°30' E 140°02'0 0.0
2014-Jul-18 09:33N 35°30' E 140°02'0 0.0
2014-Jul-18 08:33N 35°30' E 140°02'0 0.0
2014-Jul-18 07:33N 35°30' E 140°02'0 0.0
2014-Jul-18 06:33N 35°30' E 140°02'0 0.0
2014-Jul-18 05:33N 35°30' E 140°02'2 1.5
2014-Jul-18 04:33N 35°30' E 140°00'1 0.8
2014-Jul-18 03:33N 35°31' E 139°59'0 0.0
2014-Jul-18 02:33N 35°31' E 139°59'0 0.0
2014-Jul-18 01:33N 35°31' E 139°59'9 8.7
2014-Jul-18 00:33N 35°35' E 139°51'2 1.9
2014-Jul-17 23:33N 35°37' E 139°50'0 0.0
2014-Jul-17 22:33N 35°37' E 139°50'1 1.5
2014-Jul-17 21:33N 35°36' E 139°50'1 1.1
2014-Jul-17 20:33N 35°35' E 139°51'0 0.0
2014-Jul-17 19:33N 35°35' E 139°51'0 0.0
2014-Jul-17 18:33N 35°35' E 139°51'0 0.0
2014-Jul-17 17:27N 35°35' E 139°51'0 0.0
2014-Jul-17 16:33N 35°35' E 139°51'0 0.0
2014-Jul-17 15:33N 35°35' E 139°51'0 0.0
2014-Jul-17 14:33N 35°35' E 139°51'0 0.0
2014-Jul-17 13:33N 35°35' E 139°51'0 0.0
2014-Jul-17 12:33N 35°35' E 139°51'0 0.0
2014-Jul-17 11:33N 35°35' E 139°51'0 0.0
2014-Jul-17 10:27N 35°35' E 139°51'0 0.0
2014-Jul-17 09:33N 35°35' E 139°51'1 0.8
2014-Jul-17 08:34N 35°35' E 139°52'7 7.0
2014-Jul-17 07:34N 35°30' E 139°45'0 0.0
2014-Jul-17 06:33N 35°30' E 139°45'0 0.0
2014-Jul-17 05:34N 35°30' E 139°45'0 0.1
2014-Jul-17 04:34N 35°30' E 139°45'4 3.8
2014-Jul-17 03:34N 35°30' E 139°50'0 0.0
2014-Jul-17 02:33N 35°30' E 139°50'0 0.0
2014-Jul-17 01:33N 35°30' E 139°50'4 3.7
2014-Jul-17 00:33N 35°34' E 139°51'4 3.6
2014-Jul-16 23:34N 35°37' E 139°50'0 0.0
2014-Jul-16 22:33N 35°37' E 139°50'1 0.9
2014-Jul-16 21:33N 35°36' E 139°50'1 1.4
2014-Jul-16 20:29N 35°36' E 139°51'0 0.0
2014-Jul-16 19:32N 35°36' E 139°51'0 0.0
2014-Jul-16 18:29N 35°36' E 139°51'0 0.1
2014-Jul-16 17:32N 35°36' E 139°51'0 0.0
2014-Jul-16 16:32N 35°36' E 139°51'0 0.0
2014-Jul-16 15:26N 35°36' E 139°51'0 0.0
2014-Jul-16 14:32N 35°36' E 139°51'0 0.1
2014-Jul-16 13:20N 35°36' E 139°52'0 0.0
2014-Jul-16 12:29N 35°36' E 139°52'0 0.0
2014-Jul-16 11:20N 35°36' E 139°51'0 0.0
2014-Jul-16 10:05N 35°36' E 139°51'0 0.1
2014-Jul-16 09:32N 35°36' E 139°52'6 6.5
2014-Jul-16 08:34N 35°31' E 139°46'0 0.0
2014-Jul-16 07:33N 35°31' E 139°46'0 0.0
2014-Jul-16 06:33N 35°31' E 139°46'0 0.0
2014-Jul-16 05:33N 35°31' E 139°46'0 0.0
2014-Jul-16 04:32N 35°31' E 139°46'3 3.5
2014-Jul-16 03:33N 35°29' E 139°49'0 0.0
2014-Jul-16 02:33N 35°29' E 139°49'0 0.1
2014-Jul-16 01:33N 35°29' E 139°49'0 0.0
2014-Jul-16 00:33N 35°29' E 139°49'0 0.0
2014-Jul-15 23:33N 35°29' E 139°49'0 0.0
2014-Jul-15 22:33N 35°29' E 139°49'8 8.2
2014-Jul-15 21:33N 35°21' E 139°45'1111.1
2014-Jul-15 20:33N 35°10' E 139°47'1111.1
2014-Jul-15 19:33N 35°02' E 139°38'1212.3
2014-Jul-15 18:33N 34°54' E 139°27'  
Track history (hours):
 
Tides and Currents Weather Stations Pressure Air Temp Water Temp Dewpoint Dewpoint Depression Visibility Wind Speed Wind Dir Waves Ship Positions

Sanpo Maru No.5

Last reported at 2014-Jul-23 09:33 UTC. Time now 2014-Jul-23 09:51 UTC.
Position N 35°30' E 140°02'.

Length 71 m; draft 4.5 m.

Type: Ship. MMSI: 431500283.

Date/timePositionNaut miles runAvg speedWind from/ knotsBaromVisibWave heightAir tempDewpointWater temp
2014-Jul-23 09:33N 35°30' E 140°02'0 0.0
2014-Jul-23 08:33N 35°30' E 140°02'0 0.0
2014-Jul-23 07:33N 35°30' E 140°02'0 0.0
2014-Jul-23 06:33N 35°30' E 140°02'0 0.0
2014-Jul-23 05:33N 35°30' E 140°02'0 0.0
2014-Jul-23 04:33N 35°30' E 140°02'0 0.0
2014-Jul-23 03:33N 35°30' E 140°02'0 0.0
2014-Jul-23 02:33N 35°30' E 140°02'0 0.0
2014-Jul-23 01:33N 35°30' E 140°02'0 0.1
2014-Jul-23 00:33N 35°30' E 140°02'2 2.3
2014-Jul-22 23:33N 35°31' E 139°60'0 0.0
2014-Jul-22 22:33N 35°31' E 139°60'1010.3
2014-Jul-22 21:33N 35°26' E 139°49'1010.0
2014-Jul-22 20:33N 35°16' E 139°46'1110.9
2014-Jul-22 19:34N 35°05' E 139°44'1312.4
2014-Jul-22 18:31N 34°57' E 139°32'229 9.0
2014-Jul-21 17:09N 34°13' E 134°58'811.5
2014-Jul-21 16:30N 34°21' E 134°59'1111.1
2014-Jul-21 15:29N 34°32' E 135°02'8 7.6
2014-Jul-21 14:26N 34°35' E 134°53'5 0.1
2014-Jul-19 23:21N 34°37' E 134°58'6 7.3
2014-Jul-19 22:33N 34°35' E 135°05'1010.0
2014-Jul-19 21:33N 34°25' E 135°02'1010.0
2014-Jul-19 20:31N 34°15' E 134°59'1010.8
2014-Jul-19 19:33N 34°05' E 135°01'209 9.1
2014-Jul-18 20:31N 34°49' E 139°09'2110.3
2014-Jul-18 18:28N 35°03' E 139°28'1011.3
2014-Jul-18 17:33N 35°06' E 139°40'1110.9
2014-Jul-18 16:33N 35°16' E 139°45'10 9.8
2014-Jul-18 15:33N 35°26' E 139°46'1111.4
2014-Jul-18 14:33N 35°30' E 139°59'3 2.7
2014-Jul-18 13:33N 35°30' E 140°02'0 0.0
2014-Jul-18 12:33N 35°30' E 140°02'0 0.0
2014-Jul-18 11:33N 35°30' E 140°02'0 0.0
2014-Jul-18 10:33N 35°30' E 140°02'0 0.0
2014-Jul-18 09:33N 35°30' E 140°02'0 0.0
2014-Jul-18 08:33N 35°30' E 140°02'0 0.0
2014-Jul-18 07:33N 35°30' E 140°02'0 0.0
2014-Jul-18 06:33N 35°30' E 140°02'0 0.0
2014-Jul-18 05:33N 35°30' E 140°02'2 1.5
2014-Jul-18 04:33N 35°30' E 140°00'1 0.8
2014-Jul-18 03:33N 35°31' E 139°59'0 0.0
2014-Jul-18 02:33N 35°31' E 139°59'0 0.0
2014-Jul-18 01:33N 35°31' E 139°59'9 8.7
2014-Jul-18 00:33N 35°35' E 139°51'2 1.9
2014-Jul-17 23:33N 35°37' E 139°50'0 0.0
2014-Jul-17 22:33N 35°37' E 139°50'1 1.5
2014-Jul-17 21:33N 35°36' E 139°50'1 1.1
2014-Jul-17 20:33N 35°35' E 139°51'0 0.0
2014-Jul-17 19:33N 35°35' E 139°51'0 0.0
2014-Jul-17 18:33N 35°35' E 139°51'0 0.0
2014-Jul-17 17:27N 35°35' E 139°51'0 0.0
2014-Jul-17 16:33N 35°35' E 139°51'0 0.0
2014-Jul-17 15:33N 35°35' E 139°51'0 0.0
2014-Jul-17 14:33N 35°35' E 139°51'0 0.0
2014-Jul-17 13:33N 35°35' E 139°51'0 0.0
2014-Jul-17 12:33N 35°35' E 139°51'0 0.0
2014-Jul-17 11:33N 35°35' E 139°51'0 0.0
2014-Jul-17 10:27N 35°35' E 139°51'0 0.0
2014-Jul-17 09:33N 35°35' E 139°51'1 0.8
2014-Jul-17 08:34N 35°35' E 139°52'7 7.0
2014-Jul-17 07:34N 35°30' E 139°45'0 0.0
2014-Jul-17 06:33N 35°30' E 139°45'0 0.0
2014-Jul-17 05:34N 35°30' E 139°45'0 0.1
2014-Jul-17 04:34N 35°30' E 139°45'4 3.8
2014-Jul-17 03:34N 35°30' E 139°50'0 0.0
2014-Jul-17 02:33N 35°30' E 139°50'0 0.0
2014-Jul-17 01:33N 35°30' E 139°50'4 3.7
2014-Jul-17 00:33N 35°34' E 139°51'4 3.6
2014-Jul-16 23:34N 35°37' E 139°50'0 0.0
2014-Jul-16 22:33N 35°37' E 139°50'1 0.9
2014-Jul-16 21:33N 35°36' E 139°50'1 1.4
2014-Jul-16 20:29N 35°36' E 139°51'0 0.0
2014-Jul-16 19:32N 35°36' E 139°51'0 0.0
2014-Jul-16 18:29N 35°36' E 139°51'0 0.1
2014-Jul-16 17:32N 35°36' E 139°51'0 0.0
2014-Jul-16 16:32N 35°36' E 139°51'0 0.0
2014-Jul-16 15:26N 35°36' E 139°51'0 0.0
2014-Jul-16 14:32N 35°36' E 139°51'0 0.1
2014-Jul-16 13:20N 35°36' E 139°52'0 0.0
2014-Jul-16 12:29N 35°36' E 139°52'0 0.0
2014-Jul-16 11:20N 35°36' E 139°51'0 0.0
2014-Jul-16 10:05N 35°36' E 139°51'0 0.1
2014-Jul-16 09:32N 35°36' E 139°52'6 6.5
2014-Jul-16 08:34N 35°31' E 139°46'0 0.0
2014-Jul-16 07:33N 35°31' E 139°46'0 0.0
2014-Jul-16 06:33N 35°31' E 139°46'0 0.0
2014-Jul-16 05:33N 35°31' E 139°46'0 0.0
2014-Jul-16 04:32N 35°31' E 139°46'3 3.5
2014-Jul-16 03:33N 35°29' E 139°49'0 0.0
2014-Jul-16 02:33N 35°29' E 139°49'0 0.1
2014-Jul-16 01:33N 35°29' E 139°49'0 0.0
2014-Jul-16 00:33N 35°29' E 139°49'0 0.0
2014-Jul-15 23:33N 35°29' E 139°49'0 0.0
2014-Jul-15 22:33N 35°29' E 139°49'8 8.2
2014-Jul-15 21:33N 35°21' E 139°45'1111.1
2014-Jul-15 20:33N 35°10' E 139°47'1111.1
2014-Jul-15 19:33N 35°02' E 139°38'1212.3
2014-Jul-15 18:33N 34°54' E 139°27'  

Dump ship's entire track history